Time;durP1;ratioP1;P1;durP2;ratioP2;P2;SDS_P1;SDS_P2;PMS_P1;PMS_P2;Temp;Humidity;BMP_temperature;BMP_pressure;BME280_temperature;BME280_humidity;BME280_pressure;Samples;Min_cycle;Max_cycle;Signal;HPM_P1;HPM_P2
2023/01/20 00:01:25;;;;;;;14.70;11.73;;;0.90;76.80;;;0.53;73.28;97254.59;5090546;28;20934;-73
2023/01/20 00:03:54;;;;;;;18.63;11.80;;;0.90;76.70;;;0.46;73.39;97256.25;5088984;28;20786;-73
2023/01/20 00:06:24;;;;;;;15.20;12.93;;;0.90;76.90;;;0.47;73.61;97263.22;5082923;28;20558;-74
2023/01/20 00:08:51;;;;;;;15.40;12.90;;;0.90;76.70;;;0.30;74.47;97269.59;5087991;28;20454;-73
2023/01/20 00:11:20;;;;;;;14.77;12.20;;;0.90;76.90;;;0.22;74.30;97268.56;5083858;28;21745;-73
2023/01/20 00:13:47;;;;;;;16.07;12.00;;;0.90;76.90;;;0.29;74.56;97266.06;5086043;28;20528;-72
2023/01/20 00:16:15;;;;;;;17.33;12.50;;;0.90;76.90;;;0.28;74.17;97273.25;5086265;28;20493;-74
2023/01/20 00:18:42;;;;;;;15.03;12.23;;;0.90;76.70;;;0.12;74.56;97267.94;5086407;28;20493;-73
2023/01/20 00:21:13;;;;;;;15.90;13.30;;;0.80;76.80;;;0.23;74.72;97283.56;5086890;28;20451;-74
2023/01/20 00:23:41;;;;;;;15.93;11.73;;;0.80;77.10;;;0.12;74.70;97267.94;5082924;28;20473;-76
2023/01/20 00:26:11;;;;;;;15.80;13.17;;;0.70;77.10;;;0.17;74.36;97270.91;5098694;28;20463;-72
2023/01/20 00:28:39;;;;;;;19.30;12.23;;;0.80;77.30;;;0.35;74.21;97283.19;5082162;28;20485;-69
2023/01/20 00:31:14;;;;;;;18.73;13.33;;;0.80;77.30;;;0.40;73.71;97279.03;5086844;28;20444;-74
2023/01/20 00:33:42;;;;;;;16.17;12.10;;;0.80;77.10;;;0.46;73.76;97280.19;5089759;28;20439;-71
2023/01/20 00:36:11;;;;;;;18.87;13.27;;;0.90;77.10;;;0.33;73.89;97263.91;5086136;28;20455;-72
2023/01/20 00:38:38;;;;;;;16.37;12.37;;;0.90;77.00;;;0.52;73.64;97289.31;5089319;28;20459;-72
2023/01/20 00:41:08;;;;;;;16.20;13.30;;;0.90;77.00;;;0.53;73.63;97286.50;5075868;28;20450;-74
2023/01/20 00:43:35;;;;;;;16.53;12.67;;;1.00;77.10;;;0.67;72.73;97297.41;5085362;28;20446;-73
2023/01/20 00:46:05;;;;;;;15.77;12.70;;;1.00;76.70;;;0.70;72.89;97302.41;5088166;28;20474;-74
2023/01/20 00:48:33;;;;;;;17.67;14.10;;;1.10;76.70;;;0.46;73.34;97285.50;5086720;28;20546;-73
2023/01/20 00:51:00;;;;;;;18.47;13.40;;;1.00;76.40;;;0.28;74.38;97306.94;5085094;28;20969;-71
2023/01/20 00:53:28;;;;;;;17.57;13.20;;;0.90;77.30;;;0.28;74.86;97310.44;5085930;28;20458;-71
2023/01/20 00:55:55;;;;;;;18.07;14.27;;;0.90;77.20;;;0.36;74.22;97314.06;5087477;28;20444;-74
2023/01/20 00:58:23;;;;;;;15.73;13.37;;;0.90;77.30;;;0.38;74.07;97315.56;5081294;28;20456;-71
2023/01/20 01:00:54;;;;;;;19.50;13.50;;;0.90;77.20;;;0.45;74.28;97315.72;5089891;28;20507;-71
2023/01/20 01:03:21;;;;;;;16.40;12.70;;;0.90;77.50;;;0.45;74.07;97330.84;5087651;28;20447;-72
2023/01/20 01:05:48;;;;;;;17.43;14.27;;;0.80;77.40;;;0.35;75.12;97321.22;5089065;28;20479;-73
2023/01/20 01:08:16;;;;;;;18.10;14.53;;;0.90;77.80;;;0.41;74.16;97320.53;5088157;28;20457;-73
2023/01/20 01:10:43;;;;;;;18.20;14.20;;;0.90;77.60;;;0.25;74.30;97308.13;5089894;28;20508;-74
2023/01/20 01:13:10;;;;;;;17.27;14.27;;;0.90;77.80;;;0.57;73.98;97340.13;5084125;28;20662;-72
2023/01/20 01:15:39;;;;;;;17.00;13.93;;;1.00;77.20;;;0.44;74.12;97339.81;5088186;28;20487;-72
2023/01/20 01:18:06;;;;;;;19.50;14.20;;;1.00;77.10;;;0.44;74.26;97337.16;5083400;28;21018;-73
2023/01/20 01:20:33;;;;;;;18.77;14.07;;;0.90;77.10;;;0.43;74.42;97349.63;5077675;28;20541;-72
2023/01/20 01:23:01;;;;;;;15.90;12.53;;;1.00;77.40;;;0.41;74.65;97341.00;5090376;28;20451;-72
2023/01/20 01:25:28;;;;;;;17.03;12.87;;;1.00;77.50;;;0.07;73.97;97275.56;5090592;28;20502;-71
2023/01/20 01:27:55;;;;;;;17.10;13.50;;;1.00;77.50;;;0.49;74.62;97348.13;5103623;28;20458;-70
2023/01/20 01:30:22;;;;;;;16.93;12.77;;;1.00;77.40;;;0.58;73.97;97341.78;5092827;28;20443;-73
2023/01/20 01:32:51;;;;;;;17.60;14.37;;;1.00;77.60;;;0.43;74.23;97346.97;5106620;28;20435;-71
2023/01/20 01:35:18;;;;;;;16.00;13.00;;;0.90;77.50;;;0.48;74.34;97344.63;5088825;28;20539;-72
2023/01/20 01:37:45;;;;;;;20.10;13.70;;;1.00;77.50;;;0.50;74.31;97339.16;5091465;28;20455;-71
2023/01/20 01:40:12;;;;;;;16.90;13.73;;;1.00;77.60;;;0.50;74.42;97350.59;5091945;28;20490;-74
2023/01/20 01:42:40;;;;;;;19.43;14.80;;;1.00;77.60;;;0.39;74.66;97348.31;5089452;28;20459;-74
2023/01/20 01:45:29;;;;;;;20.60;15.27;;;0.90;77.50;;;0.23;75.98;97326.06;5090258;28;20447;-72
2023/01/20 01:48:05;;;;;;;23.37;14.90;;;0.90;77.90;;;0.19;75.72;97347.81;5072837;28;20448;-72
2023/01/20 01:50:38;;;;;;;19.83;14.70;;;0.80;78.10;;;0.26;75.61;97348.78;5091215;28;20872;-70
2023/01/20 01:53:06;;;;;;;17.60;14.63;;;0.80;78.20;;;0.42;75.12;97354.09;5088645;28;20451;-73
2023/01/20 01:55:38;;;;;;;19.50;15.10;;;0.80;78.20;;;0.27;75.37;97361.09;5089781;28;20448;-71
2023/01/20 01:58:07;;;;;;;20.07;14.30;;;0.80;78.00;;;0.45;75.36;97357.41;5084679;28;20534;-72
2023/01/20 02:00:34;;;;;;;19.53;15.00;;;0.80;78.70;;;0.20;75.07;97333.53;5088318;28;20470;-73
2023/01/20 02:03:03;;;;;;;20.07;15.23;;;0.80;78.30;;;0.36;75.00;97349.47;5087158;28;20778;-72
2023/01/20 02:05:32;;;;;;;21.30;15.70;;;0.90;78.50;;;0.24;75.35;97353.44;5088150;28;20467;-71
2023/01/20 02:08:00;;;;;;;20.20;15.13;;;0.80;78.40;;;0.23;75.73;97357.94;5088511;28;20454;-73
2023/01/20 02:10:27;;;;;;;16.23;13.17;;;0.80;78.90;;;0.18;76.29;97349.63;5073969;28;20471;-70
2023/01/20 02:12:54;;;;;;;18.13;14.50;;;0.70;79.30;;;0.30;76.33;97363.41;5082729;28;21013;-73
2023/01/20 02:15:27;;;;;;;22.37;16.20;;;0.80;79.30;;;0.35;76.20;97362.91;5081925;28;20509;-74
2023/01/20 02:18:11;;;;;;;19.80;15.20;;;0.80;79.50;;;0.46;75.78;97359.94;5082959;28;20486;-73
2023/01/20 02:21:00;;;;;;;19.63;14.63;;;0.90;79.60;;;0.60;75.59;97362.91;5085813;28;20454;-72
2023/01/20 02:23:49;;;;;;;23.07;16.30;;;1.00;79.70;;;0.39;75.29;97361.59;5084208;28;20469;-76
2023/01/20 02:26:51;;;;;;;21.60;15.73;;;0.90;78.80;;;0.17;76.51;97371.06;5072612;28;20485;-74
2023/01/20 02:30:09;;;;;;;19.77;15.77;;;0.80;79.50;;;0.11;77.62;97368.06;5083116;28;20803;-73
2023/01/20 02:32:48;;;;;;;20.77;16.00;;;0.60;79.80;;;0.22;76.62;97348.28;5069848;28;20455;-72
2023/01/20 02:35:25;;;;;;;19.10;14.97;;;0.70;80.40;;;0.41;76.33;97363.06;5085848;28;20487;-73
2023/01/20 02:38:05;;;;;;;21.20;15.67;;;0.90;80.10;;;0.38;76.09;97362.56;5086576;28;20678;-73
2023/01/20 02:40:42;;;;;;;20.80;15.37;;;0.90;79.80;;;0.27;76.34;97369.06;5082659;28;20805;-72
2023/01/20 02:43:16;;;;;;;23.17;15.17;;;0.80;79.80;;;0.22;76.96;97380.19;5095124;28;20447;-74
2023/01/20 02:45:48;;;;;;;18.90;15.00;;;0.70;80.00;;;0.30;77.20;97376.69;5079179;28;20571;-70
2023/01/20 02:48:24;;;;;;;19.07;15.53;;;0.80;80.60;;;0.48;76.07;97375.72;5077245;28;20467;-72
2023/01/20 02:50:59;;;;;;;19.27;15.27;;;0.80;80.40;;;0.47;75.91;97374.88;5088227;28;20531;-71
2023/01/20 02:53:34;;;;;;;18.80;14.70;;;0.90;80.00;;;0.38;75.91;97374.03;5080442;28;20550;-72
2023/01/20 02:56:01;;;;;;;18.50;15.33;;;0.80;79.80;;;0.26;76.34;97368.25;5081476;28;20465;-74
2023/01/20 02:58:36;;;;;;;22.13;15.30;;;0.80;79.90;;;0.33;76.79;97379.03;5082591;28;20455;-71
2023/01/20 03:01:11;;;;;;;19.60;15.47;;;0.80;80.70;;;0.40;76.22;97372.03;5079182;28;20435;-73
2023/01/20 03:03:44;;;;;;;21.00;16.43;;;0.90;79.80;;;0.40;76.53;97377.38;5079228;28;20542;-73
2023/01/20 03:06:18;;;;;;;21.13;15.23;;;0.90;80.00;;;0.26;76.20;97380.69;5082982;28;20494;-70
2023/01/20 03:08:47;;;;;;;21.93;16.10;;;0.80;80.00;;;0.18;77.07;97373.53;5081715;28;20468;-74
2023/01/20 03:11:15;;;;;;;22.33;15.73;;;0.70;80.70;;;0.33;76.87;97375.53;5081353;28;20471;-77
2023/01/20 03:13:50;;;;;;;22.17;15.77;;;0.80;81.20;;;0.32;76.83;97363.25;5074402;28;20454;-77
2023/01/20 03:16:20;;;;;;;21.80;16.47;;;0.80;80.80;;;0.21;76.81;97351.94;5073126;28;20478;-73
2023/01/20 03:18:49;;;;;;;19.63;15.47;;;0.80;80.70;;;0.20;77.02;97366.22;5081448;28;20473;-72
2023/01/20 03:21:17;;;;;;;22.33;15.87;;;0.80;80.60;;;-0.16;78.38;97355.91;5086056;28;20464;-74
2023/01/20 03:23:47;;;;;;;22.30;17.30;;;0.50;81.30;;;-0.41;79.49;97355.84;5084599;28;20447;-73
2023/01/20 03:26:17;;;;;;;21.23;15.40;;;0.30;82.30;;;-0.57;80.09;97357.44;5081474;28;20467;-73
2023/01/20 03:28:48;;;;;;;22.93;17.70;;;0.20;83.70;;;-0.63;80.89;97366.06;5082623;28;20533;-75
2023/01/20 03:31:21;;;;;;;21.70;17.43;;;0.00;84.60;;;-0.70;81.08;97375.63;5079685;28;20465;-73
2023/01/20 03:33:52;;;;;;;20.87;16.47;;;-0.10;86.50;;;-0.60;81.01;97386.97;5083498;28;20453;-71
2023/01/20 03:36:23;;;;;;;21.57;16.13;;;-0.10;87.10;;;-0.82;81.99;97376.94;5085363;28;20508;-74
2023/01/20 03:38:51;;;;;;;24.17;17.63;;;-0.20;88.30;;;-1.00;82.58;97364.56;5084269;28;20476;-73
2023/01/20 03:41:30;;;;;;;19.80;16.17;;;-0.30;89.60;;;-0.98;83.55;97383.81;5082580;28;20483;-71
2023/01/20 03:44:09;;;;;;;25.00;17.67;;;-0.30;90.80;;;-0.81;83.75;97391.88;5084760;28;20458;-72
2023/01/20 03:46:45;;;;;;;24.20;17.87;;;-0.30;91.30;;;-0.87;83.99;97390.66;5076040;28;20471;-74
2023/01/20 03:49:23;;;;;;;26.57;18.80;;;-0.30;91.30;;;-0.75;83.49;97396.53;5083578;28;20515;-75
2023/01/20 03:52:01;;;;;;;24.00;17.67;;;-0.30;91.60;;;-0.74;83.27;97387.56;5081405;28;20455;-73
2023/01/20 03:54:36;;;;;;;28.50;20.30;;;-0.20;91.70;;;-0.87;84.05;97399.44;5098157;28;20458;-72
2023/01/20 03:57:10;;;;;;;26.03;19.37;;;-0.30;91.50;;;-0.86;84.39;97403.75;5088242;28;20488;-73
2023/01/20 03:59:41;;;;;;;30.40;21.13;;;-0.30;92.00;;;-0.70;84.25;97402.19;5092829;28;20958;-74
2023/01/20 04:02:10;;;;;;;26.67;20.90;;;-0.20;92.30;;;-0.58;83.06;97392.94;5091376;28;20495;-75
2023/01/20 04:04:42;;;;;;;29.33;20.57;;;-0.10;91.90;;;-0.87;84.16;97396.78;5087424;28;20442;-71
2023/01/20 04:07:17;;;;;;;26.90;18.03;;;-0.20;91.30;;;-0.74;83.96;97387.56;5084858;28;20514;-72
2023/01/20 04:09:49;;;;;;;26.83;19.73;;;-0.10;92.00;;;-0.64;83.44;97401.56;5078928;28;20926;-73
2023/01/20 04:12:16;;;;;;;29.20;18.87;;;-0.10;91.90;;;-0.67;83.78;97388.63;5081175;28;20451;-73
2023/01/20 04:14:44;;;;;;;34.30;20.00;;;-0.20;91.70;;;-0.92;84.68;97393.78;5071168;28;20460;-74
2023/01/20 04:17:11;;;;;;;33.20;19.63;;;-0.20;91.60;;;-0.94;85.02;97401.09;5082951;28;20534;-73
2023/01/20 04:19:40;;;;;;;28.60;20.60;;;-0.30;92.10;;;-0.99;85.13;97408.66;5090536;28;20874;-73
2023/01/20 04:22:14;;;;;;;31.10;20.83;;;-0.30;92.30;;;-0.99;85.85;97406.00;5091864;28;20986;-73
2023/01/20 04:24:45;;;;;;;30.47;21.10;;;-0.40;92.70;;;-1.00;85.47;97407.84;5091620;28;20494;-73
2023/01/20 04:27:12;;;;;;;29.40;19.60;;;-0.50;93.20;;;-1.14;86.98;97411.06;5089049;28;20478;-76
2023/01/20 04:29:40;;;;;;;35.23;21.97;;;-0.50;94.50;;;-1.08;87.15;97415.72;5092049;28;20462;-76
2023/01/20 04:32:09;;;;;;;29.30;21.00;;;-0.50;95.10;;;-0.94;86.34;97414.34;5078082;28;20444;-74
2023/01/20 04:34:36;;;;;;;32.30;23.10;;;-0.30;95.60;;;-0.99;86.92;97424.56;5088758;28;20504;-71
2023/01/20 04:37:05;;;;;;;30.30;21.80;;;-0.30;95.40;;;-0.96;86.75;97418.97;5087360;28;21000;-73
2023/01/20 04:39:32;;;;;;;30.27;20.47;;;-0.30;95.50;;;-0.78;86.67;97426.03;5088385;28;20457;-73
2023/01/20 04:41:59;;;;;;;38.50;21.17;;;-0.20;95.40;;;-0.57;85.93;97434.41;5088305;28;20491;-71
2023/01/20 04:44:27;;;;;;;37.20;21.60;;;-0.10;96.10;;;-0.65;85.95;97437.03;5080577;28;20826;-71
2023/01/20 04:46:58;;;;;;;32.10;22.07;;;-0.10;94.40;;;-0.64;85.94;97436.06;5088069;28;20528;-72
2023/01/20 04:49:25;;;;;;;29.53;22.80;;;-0.10;94.40;;;-0.53;85.34;97442.06;5087530;28;20459;-70
2023/01/20 04:51:53;;;;;;;30.90;22.93;;;0.00;94.80;;;-0.40;85.61;97447.75;5105180;28;20456;-71
2023/01/20 04:54:21;;;;;;;30.03;21.37;;;0.00;94.80;;;-0.47;85.78;97447.56;5085734;28;20455;-74
2023/01/20 04:56:49;;;;;;;31.83;22.00;;;0.00;94.10;;;-0.21;85.01;97448.50;5085831;28;20455;-75
2023/01/20 04:59:17;;;;;;;32.70;22.40;;;0.20;94.50;;;-0.36;84.75;97454.44;5084417;28;20459;-76
2023/01/20 05:01:44;;;;;;;29.43;20.67;;;0.20;93.30;;;-0.36;85.24;97456.25;5073426;28;20506;-74
2023/01/20 05:04:11;;;;;;;35.27;22.93;;;0.10;93.10;;;-0.47;85.25;97460.81;5071481;28;21146;-72
2023/01/20 05:06:41;;;;;;;39.10;23.73;;;0.10;93.40;;;-0.51;85.79;97453.38;5085433;28;20463;-74
2023/01/20 05:09:14;;;;;;;36.50;23.10;;;0.00;93.70;;;-0.51;86.38;97463.97;5085629;28;20980;-74
2023/01/20 05:11:42;;;;;;;33.77;22.17;;;0.00;93.90;;;-0.26;85.62;97466.72;5087382;28;20455;-75
2023/01/20 05:14:10;;;;;;;34.43;22.53;;;0.10;94.90;;;-0.14;84.69;97476.06;5084288;28;20455;-75
2023/01/20 05:16:39;;;;;;;30.73;22.13;;;0.30;93.20;;;-0.11;84.62;97483.72;5085719;28;20466;-73
2023/01/20 05:19:06;;;;;;;31.40;22.33;;;0.40;92.30;;;-0.34;85.06;97481.66;5095172;28;20457;-72
2023/01/20 05:21:34;;;;;;;33.07;22.07;;;0.30;91.80;;;-0.46;85.82;97485.56;5086916;28;20519;-74
2023/01/20 05:24:01;;;;;;;33.53;22.50;;;0.20;93.00;;;-0.53;86.56;97492.47;5087392;28;20447;-74
2023/01/20 05:26:28;;;;;;;37.37;23.33;;;0.20;93.50;;;-0.68;87.49;97494.91;5091202;28;21039;-72
2023/01/20 05:28:56;;;;;;;38.07;24.17;;;0.10;94.60;;;-0.64;86.70;97457.28;5070670;28;21087;-73
2023/01/20 05:31:23;;;;;;;28.00;20.67;;;0.10;96.10;;;-0.62;87.49;97502.22;5078256;28;20456;-74
2023/01/20 05:33:51;;;;;;;36.43;22.47;;;0.10;95.40;;;-0.59;87.98;97501.94;5069438;28;20501;-72
2023/01/20 05:36:18;;;;;;;36.23;23.53;;;0.00;95.90;;;-0.44;87.08;97504.81;5082879;28;20468;-70
2023/01/20 05:38:45;;;;;;;38.63;25.23;;;0.00;96.30;;;-0.27;86.88;97515.50;5084132;28;21328;-72
2023/01/20 05:41:12;;;;;;;36.00;24.40;;;0.10;97.00;;;-0.29;86.46;97518.34;5088487;28;20483;-72
2023/01/20 05:43:40;;;;;;;36.10;24.67;;;0.20;95.60;;;-0.29;86.05;97519.16;5089225;28;20451;-78
2023/01/20 05:46:08;;;;;;;36.10;24.57;;;0.20;95.70;;;-0.31;86.53;97521.16;5087716;28;20467;-74
2023/01/20 05:48:35;;;;;;;36.93;24.87;;;0.20;95.40;;;0.00;85.43;97522.47;5079226;28;20513;-74
2023/01/20 05:51:03;;;;;;;34.70;24.00;;;0.30;96.00;;;-0.06;84.68;97525.72;5087296;28;20454;-75
2023/01/20 05:53:30;;;;;;;36.30;23.10;;;0.40;94.10;;;0.14;84.42;97534.28;5082192;28;20458;-76
2023/01/20 05:56:01;;;;;;;35.90;24.10;;;0.50;94.00;;;0.14;84.60;97532.44;5079651;28;20543;-75
2023/01/20 05:58:31;;;;;;;32.93;22.00;;;0.60;92.80;;;0.10;84.58;97540.91;5077761;28;20455;-79
2023/01/20 06:01:05;;;;;;;32.73;22.97;;;0.50;92.80;;;0.10;84.70;97540.91;5076245;28;20467;-83
2023/01/20 06:03:34;;;;;;;30.27;22.60;;;0.50;92.70;;;0.11;84.04;97532.78;5095105;27;20496;-82
2023/01/20 06:06:01;;;;;;;34.43;22.33;;;0.50;92.40;;;0.30;83.34;97538.81;5077487;28;20486;-79
2023/01/20 06:08:29;;;;;;;34.10;21.80;;;0.70;92.20;;;0.21;83.28;97547.75;5073507;28;20522;-73
2023/01/20 06:10:56;;;;;;;31.63;22.13;;;0.60;91.70;;;0.33;82.75;97543.81;5076331;28;20572;-74
2023/01/20 06:13:23;;;;;;;32.03;22.80;;;0.60;92.10;;;0.28;82.41;97538.97;5078855;28;20504;-75
2023/01/20 06:15:52;;;;;;;31.73;21.67;;;0.90;90.90;;;0.40;82.27;97550.13;5080001;28;20462;-75
2023/01/20 06:18:21;;;;;;;35.63;22.27;;;0.80;90.30;;;0.24;81.90;97527.03;5077877;28;20459;-77
2023/01/20 06:20:50;;;;;;;33.17;23.13;;;0.80;90.60;;;0.41;82.61;97551.78;5076957;28;20785;-75
2023/01/20 06:23:18;;;;;;;32.47;23.77;;;0.80;90.60;;;0.19;81.13;97485.97;5079895;28;20855;-75
2023/01/20 06:25:45;;;;;;;34.50;23.40;;;0.90;90.40;;;0.56;81.53;97557.34;5074164;28;20459;-75
2023/01/20 06:28:12;;;;;;;35.57;24.63;;;0.90;90.10;;;0.59;81.15;97556.16;5079868;28;20515;-71
2023/01/20 06:30:41;;;;;;;35.67;21.83;;;1.00;89.60;;;0.68;81.07;97552.53;5093218;27;21488;-72
2023/01/20 06:33:09;;;;;;;37.33;22.60;;;1.00;89.60;;;0.66;81.28;97551.00;5082349;28;20457;-71
2023/01/20 06:35:37;;;;;;;34.10;21.00;;;1.10;88.90;;;0.67;79.95;97558.00;5084793;28;20470;-71
2023/01/20 06:38:05;;;;;;;29.50;21.33;;;1.10;86.90;;;0.74;79.76;97556.38;5082062;28;20473;-72
2023/01/20 06:40:32;;;;;;;34.63;24.20;;;1.10;86.60;;;0.81;79.85;97562.66;5082895;28;20963;-71
2023/01/20 06:42:59;;;;;;;33.73;22.37;;;1.20;86.40;;;0.90;81.28;97560.03;5092482;28;20509;-72
2023/01/20 06:45:28;;;;;;;33.67;23.13;;;1.30;89.60;;;1.02;81.64;97576.50;5098481;28;20459;-71
2023/01/20 06:47:55;;;;;;;33.67;21.73;;;1.40;90.30;;;0.96;80.27;97575.31;5083344;28;20468;-71
2023/01/20 06:50:23;;;;;;;29.70;21.33;;;1.40;88.00;;;0.66;80.32;97582.94;5081357;28;20468;-71
2023/01/20 06:52:50;;;;;;;31.07;21.23;;;1.30;86.10;;;0.70;80.20;97584.28;5095628;28;20486;-71
2023/01/20 06:55:18;;;;;;;30.43;21.70;;;1.20;86.00;;;0.36;81.04;97580.69;5077978;28;20462;-72
2023/01/20 06:57:45;;;;;;;33.80;22.40;;;1.00;86.90;;;0.13;81.50;97524.66;5084699;28;20454;-72
2023/01/20 07:00:14;;;;;;;35.00;22.83;;;0.90;89.20;;;0.66;80.37;97569.63;5077252;28;20451;-73
2023/01/20 07:02:41;;;;;;;31.93;22.07;;;1.10;89.00;;;0.72;80.07;97589.41;5083823;28;20459;-72
2023/01/20 07:05:10;;;;;;;34.40;22.03;;;1.10;86.70;;;0.71;80.42;97596.59;5086539;28;20829;-72
2023/01/20 07:07:37;;;;;;;33.63;23.23;;;1.10;87.20;;;0.71;80.50;97596.59;5083458;28;20474;-71
2023/01/20 07:10:06;;;;;;;37.97;23.73;;;1.00;87.90;;;0.62;80.14;97600.22;5086370;28;20445;-71
2023/01/20 07:12:34;;;;;;;32.40;23.47;;;1.10;87.30;;;0.51;81.20;97602.16;5079070;28;20459;-72
2023/01/20 07:15:02;;;;;;;39.30;26.07;;;1.00;87.80;;;0.46;81.61;97604.47;5081730;28;20461;-76
2023/01/20 07:17:29;;;;;;;36.80;24.63;;;1.00;88.90;;;0.69;81.33;97614.53;5076414;28;21032;-73
2023/01/20 07:19:56;;;;;;;32.17;22.67;;;1.00;89.80;;;0.96;80.19;97609.91;5081838;28;20543;-77
2023/01/20 07:22:23;;;;;;;38.07;25.10;;;1.20;89.20;;;0.86;80.31;97610.06;5073889;28;20944;-83
2023/01/20 07:24:51;;;;;;;34.77;23.17;;;1.30;88.00;;;1.04;80.14;97625.91;5091450;28;21118;-75
2023/01/20 07:27:18;;;;;;;31.70;21.63;;;1.30;88.00;;;0.98;79.56;97623.88;5076204;28;20459;-75
2023/01/20 07:29:47;;;;;;;36.47;23.27;;;1.40;87.00;;;0.65;80.78;97622.00;5075609;28;20536;-72
2023/01/20 07:32:14;;;;;;;34.73;23.03;;;1.20;86.50;;;0.67;80.86;97632.44;5079786;28;20498;-75
2023/01/20 07:34:41;;;;;;;33.80;22.00;;;1.20;87.20;;;0.66;81.29;97636.09;5075544;28;20491;-74
2023/01/20 07:37:08;;;;;;;30.53;20.47;;;1.10;88.00;;;0.50;80.95;97637.72;5080370;28;20958;-76
2023/01/20 07:39:36;;;;;;;30.53;22.07;;;1.10;88.00;;;0.50;81.16;97645.69;5075323;28;20467;-74
2023/01/20 07:42:03;;;;;;;34.43;23.07;;;1.00;88.50;;;0.35;81.76;97631.34;5069306;28;20460;-76
2023/01/20 07:44:32;;;;;;;38.53;23.00;;;1.00;89.30;;;0.40;82.33;97648.47;5074534;28;20482;-76
2023/01/20 07:47:00;;;;;;;39.40;24.57;;;0.90;90.10;;;0.61;81.68;97651.72;5082233;28;20481;-75
2023/01/20 07:49:28;;;;;;;34.27;23.20;;;1.00;89.90;;;0.66;81.62;97644.94;5074800;28;20465;-76
2023/01/20 07:51:56;;;;;;;40.90;25.73;;;1.10;89.90;;;0.60;81.57;97639.44;5073644;28;21103;-73
2023/01/20 07:54:23;;;;;;;37.33;24.23;;;1.10;90.00;;;0.51;81.94;97639.38;5075077;28;20456;-74
2023/01/20 07:56:50;;;;;;;39.27;25.37;;;1.00;90.00;;;0.28;82.31;97645.28;5076661;28;20495;-73
2023/01/20 07:59:18;;;;;;;37.80;24.67;;;0.90;90.30;;;0.51;82.74;97655.34;5082761;28;20450;-71
2023/01/20 08:01:45;;;;;;;40.47;24.93;;;1.00;90.90;;;0.51;83.08;97657.19;5080979;28;21015;-74
2023/01/20 08:04:14;;;;;;;41.33;24.90;;;1.00;90.80;;;0.45;82.54;97669.28;5071968;28;20509;-73
2023/01/20 08:06:42;;;;;;;42.70;26.40;;;1.00;90.70;;;0.44;83.18;97664.94;5078247;28;20449;-76
2023/01/20 08:09:11;;;;;;;39.90;25.57;;;0.90;90.70;;;0.44;83.57;97670.28;5089343;28;20486;-74
2023/01/20 08:11:39;;;;;;;34.27;23.30;;;0.90;91.10;;;0.52;82.94;97667.63;5082208;28;20459;-79
2023/01/20 08:14:06;;;;;;;39.33;25.47;;;1.00;91.20;;;0.56;82.53;97682.28;5079935;28;20486;-77
2023/01/20 08:16:33;;;;;;;45.53;24.80;;;1.00;90.90;;;0.69;82.26;97681.03;5085756;28;20550;-76
2023/01/20 08:19:00;;;;;;;36.33;23.80;;;1.10;91.20;;;0.70;82.16;97675.53;5082488;28;21000;-79
2023/01/20 08:21:31;;;;;;;40.17;25.30;;;1.10;90.50;;;0.60;82.12;97681.97;5083208;28;20465;-80
2023/01/20 08:24:01;;;;;;;39.13;25.40;;;1.10;90.00;;;0.58;82.60;97683.97;5077748;28;20538;-81
2023/01/20 08:26:29;;;;;;;38.70;23.57;;;1.10;90.00;;;0.75;82.32;97683.03;5087228;28;20451;-82
2023/01/20 08:29:02;;;;;;;38.33;23.60;;;1.10;90.50;;;0.76;81.32;97690.00;5091669;28;20476;-77
2023/01/20 08:31:30;;;;;;;37.93;23.97;;;1.20;89.70;;;0.62;81.68;97688.81;5084988;28;20469;-78
2023/01/20 08:33:58;;;;;;;38.47;24.90;;;1.20;89.20;;;0.35;81.39;97640.16;5074615;28;20455;-78
2023/01/20 08:36:29;;;;;;;36.27;23.47;;;1.20;89.70;;;0.58;81.81;97681.31;5084417;28;20505;-78
2023/01/20 08:39:00;;;;;;;40.23;26.03;;;1.20;89.30;;;0.68;82.04;97688.16;5085588;28;20463;-76
2023/01/20 08:41:31;;;;;;;37.50;24.63;;;1.20;90.00;;;0.75;81.38;97701.63;5074337;28;20465;-76
2023/01/20 08:44:00;;;;;;;38.00;24.00;;;1.20;88.60;;;0.63;81.49;97705.56;5075064;28;20463;-75
2023/01/20 08:46:27;;;;;;;36.50;22.47;;;1.20;88.40;;;0.69;81.07;97710.28;5087993;28;20470;-77
2023/01/20 08:48:55;;;;;;;35.43;22.93;;;1.20;88.60;;;0.76;81.15;97707.78;5078219;28;20940;-76
2023/01/20 08:51:26;;;;;;;38.33;24.77;;;1.20;88.80;;;0.67;81.40;97698.94;5099047;28;20862;-76
2023/01/20 08:53:54;;;;;;;43.13;23.67;;;1.20;88.90;;;0.69;81.55;97728.88;5100304;28;20458;-77
2023/01/20 08:56:22;;;;;;;39.10;24.43;;;1.20;89.10;;;0.44;82.49;97717.28;5084726;28;20443;-74
2023/01/20 08:58:49;;;;;;;40.00;24.03;;;1.10;89.10;;;0.33;82.03;97705.94;5096664;28;21017;-79
2023/01/20 09:01:19;;;;;;;39.10;23.27;;;1.00;89.70;;;0.78;81.51;97730.56;5075330;28;20517;-77
2023/01/20 09:03:47;;;;;;;34.77;24.07;;;1.20;90.10;;;0.52;81.06;97690.75;5102026;28;21046;-78
2023/01/20 09:06:15;;;;;;;33.20;22.83;;;1.20;89.60;;;0.70;81.17;97739.34;5083548;28;20482;-77
2023/01/20 09:08:42;;;;;;;35.53;24.20;;;1.10;88.80;;;0.88;80.76;97734.94;5092663;28;20467;-76
2023/01/20 09:11:13;;;;;;;31.87;22.73;;;1.20;88.90;;;0.56;80.63;97700.91;5085953;28;20459;-77
2023/01/20 09:13:41;;;;;;;37.57;22.40;;;1.20;88.10;;;0.61;80.17;97691.59;5091609;28;20426;-76
2023/01/20 09:16:10;;;;;;;40.77;24.50;;;1.30;88.10;;;0.82;80.79;97750.53;5072102;28;21003;-74
2023/01/20 09:18:38;;;;;;;35.50;22.60;;;1.30;87.60;;;0.33;80.77;97679.38;5082983;28;20485;-77
2023/01/20 09:21:06;;;;;;;35.53;23.27;;;1.30;87.50;;;0.89;80.21;97729.44;5083765;28;20507;-77
2023/01/20 09:23:34;;;;;;;30.40;22.87;;;1.30;87.80;;;0.98;80.18;97749.78;5086453;28;20513;-77
2023/01/20 09:26:05;;;;;;;32.30;22.80;;;1.40;88.50;;;0.80;79.78;97739.22;5085167;28;20451;-77
2023/01/20 09:28:34;;;;;;;33.47;21.40;;;1.40;86.80;;;0.98;80.01;97762.22;5096137;28;20544;-77
2023/01/20 09:31:03;;;;;;;33.50;21.60;;;1.40;86.90;;;1.19;78.68;97768.97;5090313;28;20454;-76
2023/01/20 09:33:31;;;;;;;33.50;22.10;;;1.50;85.90;;;1.18;78.72;97775.28;5082516;28;20489;-76
2023/01/20 09:35:59;;;;;;;33.10;23.17;;;1.50;85.30;;;1.35;78.52;97774.34;5083128;28;20455;-75
2023/01/20 09:44:20;;;;;;;35.80;22.77;;;1.70;84.90;;;1.42;78.35;97780.66;5078024;28;20455;-75
2023/01/20 09:47:20;;;;;;;33.60;22.60;;;1.80;84.30;;;1.22;79.06;97789.94;5078919;28;20993;-77
2023/01/20 09:53:06;;;;;;;32.53;21.37;;;1.80;86.20;;;1.67;77.45;97786.06;5083902;28;20457;-75
2023/01/20 09:55:46;;;;;;;34.43;22.70;;;2.00;83.80;;;1.67;77.71;97791.38;5081404;28;20468;-75
2023/01/20 09:58:27;;;;;;;30.67;22.00;;;2.10;83.20;;;1.60;77.21;97769.06;5075631;28;20576;-76
2023/01/20 10:01:07;;;;;;;26.70;19.80;;;2.10;82.60;;;1.02;77.87;97699.75;5097957;27;20454;-76
2023/01/20 10:03:45;;;;;;;32.07;18.37;;;2.00;82.90;;;1.61;76.91;97799.19;5085793;28;20480;-76
2023/01/20 10:06:20;;;;;;;30.60;20.80;;;2.10;82.70;;;1.38;77.69;97766.03;5099638;28;21022;-77
2023/01/20 10:08:56;;;;;;;31.70;20.53;;;2.00;82.50;;;1.89;76.90;97794.38;5086065;28;20705;-76
2023/01/20 10:11:26;;;;;;;33.43;22.13;;;2.20;82.90;;;1.89;76.33;97797.06;5075923;28;20464;-75
2023/01/20 10:14:02;;;;;;;29.60;20.77;;;2.30;81.90;;;1.92;76.25;97801.22;5076481;28;20544;-76
2023/01/20 10:16:40;;;;;;;31.80;21.53;;;2.40;81.80;;;1.87;76.43;97799.06;5095806;27;20508;-77
2023/01/20 10:19:15;;;;;;;30.63;21.20;;;2.30;81.70;;;1.65;76.49;97772.06;5084644;28;20450;-76
2023/01/20 10:21:49;;;;;;;28.27;20.40;;;2.20;81.70;;;1.81;76.80;97787.22;5088414;28;20662;-79
2023/01/20 10:24:23;;;;;;;29.73;21.37;;;2.30;82.40;;;1.79;77.33;97799.06;5089554;28;20447;-78
2023/01/20 10:26:57;;;;;;;32.10;22.03;;;2.20;82.40;;;1.60;77.10;97776.22;5092473;28;20502;-76
2023/01/20 10:29:33;;;;;;;31.13;21.37;;;2.20;82.30;;;1.52;78.39;97804.50;5079443;28;20471;-76
2023/01/20 10:32:11;;;;;;;31.30;20.77;;;2.10;82.90;;;1.12;78.70;97752.81;5082416;28;20787;-76
2023/01/20 10:34:46;;;;;;;29.50;20.77;;;2.00;83.80;;;1.54;78.35;97801.66;5083830;28;20450;-77
2023/01/20 10:37:15;;;;;;;32.37;21.77;;;2.10;83.70;;;1.56;78.53;97775.69;5101921;27;20474;-75
2023/01/20 10:39:49;;;;;;;32.00;22.37;;;2.10;84.10;;;1.57;78.17;97781.88;5080369;28;20451;-79